EKSP/SKS METAR and TAF weather

Enter ICAO airport designator
Station Type Date Time Source
EKSP METAR 2022/06/29 00:20 UTC NOAA

EKSP 290020Z 09003KT CAVOK 11/11 Q1020


Station Type Date Time Source
EKSP Decoded METAR 2022/06/29 00:20 UTC NOAA

Skrydstrup, Denmark (EKSP) 55-14N 009-16E 47M
Jun 28, 2022 - 08:20 PM EDT / 2022.06.29 0020 UTC
Wind: from the E (090 degrees) at 3 MPH (3 KT):0
Visibility: greater than 7 mile(s):0
Temperature: 51 F (11 C)
Dew Point: 51 F (11 C)
Relative Humidity: 100%
Pressure (altimeter): 30.12 in. Hg (1020 hPa)
ob: EKSP 290020Z 09003KT CAVOK 11/11 Q1020
cycle: 0

Station Type Date Time Source
EKSP TAF 2022/06/28 21:31 UTC NOAA

TAF EKSP 282006Z 2821/2921 VRB03KT 9999 SCT020
TEMPO 2823/2905 0800 BCFG VV002
BECMG 2907/2909 12008KT

Example: see airport list